Terminal Aerodrome Forecast
Issued by NWS

Home | Current Version | Previous Version | Text Only | Print | Product List | Glossary On
Versions: 1 2 3 4 5 6 7 8 9 10 11 12 13 14 15 16 17 18
000
FTUS43 KDMX 210529
TAFFOD
TAF
KFOD 210529Z 2106/2206 00000KT P6SM VCTS BKN050CB OVC090
      TEMPO 2106/2109 3SM -TSRA BKN015CB
     FM211600 17009KT P6SM BKN050
     FM212300 01008KT P6SM SHRA VCTS BKN040CB
     FM220300 33004KT P6SM BKN040=

USA.gov is the U.S. government's official web portal to all federal, state and local government web resources and services.